createdAt,value
2023-05-09T00:11:14.638Z,75.05
2023-05-09T00:14:23.746Z,75.18
2023-05-09T00:17:53.538Z,75.33
2023-05-09T00:20:40.883Z,75.56
2023-05-09T00:23:47.980Z,75.71
2023-05-09T00:27:15.182Z,75.94
2023-05-09T00:30:27.695Z,76.22
2023-05-09T00:33:58.345Z,76.37
2023-05-09T00:37:45.230Z,76.70
2023-05-09T00:41:13.517Z,76.71
2023-05-09T01:23:42.473Z,76.43
2023-05-09T01:36:17.005Z,75.70
2023-05-09T01:39:47.778Z,75.42
2023-05-09T01:42:19.843Z,75.22
2023-05-09T01:45:18.984Z,74.98
2023-05-09T01:48:36.408Z,74.82
2023-05-09T01:51:52.677Z,75.11
2023-05-09T01:55:22.326Z,75.36
2023-05-09T01:58:13.918Z,75.37
2023-05-09T02:01:49.716Z,75.53
2023-05-09T02:04:53.095Z,75.46
2023-05-09T02:07:26.836Z,75.55
2023-05-09T02:10:17.373Z,75.54
2023-05-09T02:13:09.314Z,75.51
2023-05-09T03:09:34.434Z,75.72
2023-05-09T04:00:46.545Z,75.89
2023-05-09T04:37:41.357Z,74.08
2023-05-09T04:41:16.550Z,73.68
2023-05-09T05:38:34.172Z,69.62
2023-05-09T05:41:03.327Z,69.51
2023-05-09T05:43:32.650Z,69.57
2023-05-09T05:46:01.388Z,69.72
2023-05-09T05:48:30.018Z,69.90
2023-05-09T05:51:17.969Z,69.87
2023-05-09T05:54:06.339Z,69.97
2023-05-09T05:56:35.456Z,69.84
2023-05-09T05:59:03.500Z,69.92
2023-05-09T06:01:51.737Z,70.21
2023-05-09T06:05:00.849Z,70.16
2023-05-09T06:08:08.696Z,70.36
2023-05-09T06:10:37.657Z,69.89
2023-05-09T06:13:46.380Z,69.48
2023-05-09T06:16:55.155Z,68.71
2023-05-09T06:19:24.503Z,68.06
2023-05-09T06:21:53.523Z,68.31
2023-05-09T06:24:34.651Z,67.84
2023-05-09T06:27:06.106Z,67.32
2023-05-09T06:58:02.313Z,63.72
2023-05-09T07:01:11.021Z,63.45
2023-05-09T07:03:40.129Z,63.39
2023-05-09T07:06:28.717Z,63.16
2023-05-09T07:09:37.589Z,63.29
2023-05-09T07:12:27.133Z,63.29
2023-05-09T07:15:25.556Z,61.96
2023-05-09T07:17:57.824Z,61.75
2023-05-09T07:21:06.704Z,60.96
2023-05-09T08:23:31.353Z,56.05
2023-05-09T08:25:59.497Z,55.76
2023-05-09T08:28:28.801Z,55.29
2023-05-09T08:30:57.905Z,55.22
2023-05-09T08:33:46.055Z,55.19
2023-05-09T08:36:14.305Z,54.91
2023-05-09T08:39:03.816Z,55.44
2023-05-09T08:41:58.650Z,55.18
2023-05-09T08:44:28.136Z,55.62
2023-05-09T08:47:00.962Z,55.28
2023-05-09T08:49:29.322Z,54.17
2023-05-09T08:51:57.856Z,53.85
2023-05-09T08:54:26.297Z,53.47
2023-05-09T08:56:54.905Z,52.87
2023-05-09T08:59:25.326Z,53.65
2023-05-09T09:01:55.560Z,53.05
2023-05-09T09:04:23.920Z,53.11
2023-05-09T09:06:54.489Z,53.02
2023-05-09T09:09:24.068Z,52.10
2023-05-09T09:11:53.803Z,52.29
2023-05-09T09:14:28.461Z,52.54
2023-05-09T09:16:58.759Z,51.97
2023-05-09T09:19:31.689Z,52.31
2023-05-09T09:22:04.889Z,52.22
2023-05-09T09:24:36.365Z,51.74
2023-05-09T09:27:08.582Z,51.60
2023-05-09T09:29:38.906Z,51.43
2023-05-09T09:32:08.254Z,50.59
2023-05-09T09:34:38.303Z,49.30
2023-05-09T09:37:07.449Z,48.75
2023-05-09T09:39:36.546Z,49.34
2023-05-09T09:42:12.869Z,49.89
2023-05-09T09:44:42.365Z,48.59
2023-05-09T09:47:11.795Z,48.39
2023-05-09T09:49:46.898Z,47.78
2023-05-09T09:52:24.919Z,47.46
2023-05-09T09:54:56.873Z,47.05
2023-05-09T09:57:38.947Z,47.64
2023-05-09T10:00:09.612Z,47.46
2023-05-09T10:02:50.454Z,46.69
2023-05-09T10:05:21.086Z,46.97
2023-05-09T10:07:57.103Z,46.51
2023-05-09T10:10:32.387Z,46.36
2023-05-09T10:13:21.241Z,44.93
2023-05-09T10:15:53.930Z,44.97
2023-05-09T10:18:28.056Z,45.64
2023-05-09T10:21:17.877Z,46.20
2023-05-09T10:23:48.912Z,45.40
2023-05-09T10:26:30.599Z,45.09
2023-05-09T10:29:03.426Z,44.86
2023-05-09T10:31:36.700Z,44.45
2023-05-09T10:34:31.782Z,44.60
2023-05-09T10:37:01.027Z,43.16
2023-05-09T10:39:31.067Z,43.24
2023-05-09T10:42:01.071Z,42.85
2023-05-09T10:44:50.086Z,43.09
2023-05-09T10:47:19.732Z,43.07
2023-05-09T10:49:50.499Z,43.05
2023-05-09T10:53:11.976Z,42.83
2023-05-09T10:55:49.826Z,42.97
2023-05-09T10:58:34.041Z,42.43
2023-05-09T11:01:05.939Z,42.41
2023-05-09T11:04:14.906Z,42.89
2023-05-09T11:06:51.286Z,43.01
2023-05-09T11:09:25.044Z,43.39
2023-05-09T11:12:14.588Z,44.10
2023-05-09T11:14:45.589Z,43.69
2023-05-09T11:17:22.848Z,43.24
2023-05-09T11:19:51.362Z,42.50
2023-05-09T11:22:26.312Z,42.52
2023-05-09T11:25:13.315Z,41.55
2023-05-09T11:27:43.410Z,40.79
2023-05-09T11:30:16.727Z,39.97
2023-05-09T11:32:50.607Z,40.22
2023-05-09T11:35:21.831Z,40.02
2023-05-09T11:37:51.116Z,40.31
2023-05-09T11:40:21.001Z,40.79
2023-05-09T11:42:58.060Z,40.82
2023-05-09T11:45:33.253Z,40.83
2023-05-09T11:48:02.143Z,39.58
2023-05-09T11:50:30.493Z,38.93
2023-05-09T11:52:58.585Z,39.10
2023-05-09T11:55:30.034Z,38.22
2023-05-09T11:57:59.092Z,37.48
2023-05-09T12:00:27.247Z,37.95
2023-05-09T12:02:55.611Z,36.97
2023-05-09T12:05:23.898Z,37.50
2023-05-09T12:07:52.850Z,37.10
2023-05-09T12:10:23.189Z,36.46
2023-05-09T12:12:55.316Z,36.00
2023-05-09T12:15:24.291Z,36.07
2023-05-09T12:18:04.172Z,37.32
2023-05-09T12:20:42.435Z,37.85
2023-05-09T12:23:12.635Z,38.15
2023-05-09T12:25:48.193Z,38.18
2023-05-09T12:28:16.877Z,38.22
2023-05-09T12:30:45.407Z,39.08
2023-05-09T12:33:13.593Z,39.26
2023-05-09T12:35:48.738Z,40.14
2023-05-09T12:38:23.444Z,40.71
2023-05-09T12:41:06.706Z,40.02
2023-05-09T12:43:39.764Z,40.04
2023-05-09T12:46:11.306Z,40.49
2023-05-09T12:48:39.467Z,40.88
2023-05-09T12:51:08.086Z,41.57
2023-05-09T12:53:40.850Z,41.92
2023-05-09T12:56:35.738Z,42.22
2023-05-09T12:59:04.054Z,42.41
2023-05-09T13:01:32.616Z,42.68
2023-05-09T13:04:03.838Z,42.38
2023-05-09T13:06:32.373Z,42.27
2023-05-09T13:09:02.807Z,42.27
2023-05-09T13:11:30.952Z,42.79
2023-05-09T13:13:59.011Z,42.39
2023-05-09T13:16:27.175Z,41.44
2023-05-09T13:18:55.372Z,40.85
2023-05-09T13:21:23.520Z,40.94
2023-05-09T13:23:52.094Z,40.68
2023-05-09T13:26:20.300Z,41.22
2023-05-09T13:28:48.610Z,40.92
2023-05-09T13:31:16.683Z,40.39
2023-05-09T13:33:44.902Z,40.53
2023-05-09T13:36:13.053Z,40.78
2023-05-09T13:38:41.556Z,41.18
2023-05-09T13:41:10.674Z,41.72
2023-05-09T13:43:41.029Z,41.15
2023-05-09T13:46:09.101Z,40.82
2023-05-09T13:48:37.754Z,40.03
2023-05-09T13:51:07.606Z,39.98
2023-05-09T13:53:38.083Z,40.04
2023-05-09T13:56:11.867Z,39.83
2023-05-09T13:58:41.929Z,39.82
2023-05-09T14:01:11.028Z,39.47
2023-05-09T14:03:40.040Z,39.71
2023-05-09T14:06:10.524Z,39.57
2023-05-09T14:08:58.991Z,39.46
2023-05-09T14:11:48.927Z,39.51
2023-05-09T14:14:20.981Z,39.78
2023-05-09T14:16:51.053Z,40.15
2023-05-09T14:19:19.924Z,40.30
2023-05-09T14:21:50.925Z,39.93
2023-05-09T14:24:19.355Z,39.86
2023-05-09T14:26:48.098Z,39.70
2023-05-09T14:29:17.969Z,39.84
2023-05-09T14:31:47.141Z,40.28
2023-05-09T14:34:16.095Z,40.98
2023-05-09T14:36:45.945Z,41.44
2023-05-09T14:39:15.069Z,41.44
2023-05-09T14:42:04.000Z,41.37
2023-05-09T14:44:33.074Z,41.52
2023-05-09T14:47:01.505Z,41.37
2023-05-09T14:49:30.957Z,41.20
2023-05-09T14:52:00.138Z,41.33
2023-05-09T14:54:29.985Z,41.53
2023-05-09T14:56:59.962Z,42.15
2023-05-09T14:59:32.804Z,42.69
2023-05-09T15:02:25.981Z,42.79
2023-05-09T15:04:57.952Z,42.81
2023-05-09T15:07:29.944Z,42.42
2023-05-09T15:10:01.910Z,42.62
2023-05-09T15:12:34.009Z,42.90
2023-05-09T15:15:34.103Z,43.07
2023-05-09T15:18:05.970Z,42.89
2023-05-09T15:20:37.134Z,43.01
2023-05-09T15:23:08.028Z,43.28
2023-05-09T15:25:42.023Z,43.15
2023-05-09T15:28:33.882Z,42.95
2023-05-09T15:31:05.084Z,42.90
2023-05-09T15:33:37.244Z,43.12
2023-05-09T15:36:09.967Z,43.50
2023-05-09T15:38:41.278Z,43.86
2023-05-09T15:41:13.008Z,43.68
2023-05-09T15:43:45.008Z,43.80
2023-05-09T15:46:17.127Z,44.19
2023-05-09T15:48:48.278Z,44.46
2023-05-09T15:51:20.030Z,44.77
2023-05-09T15:53:51.972Z,44.73
2023-05-09T16:04:34.383Z,45.04
2023-05-09T16:07:02.508Z,45.30
2023-05-09T16:09:30.498Z,45.47
2023-05-09T16:11:58.472Z,45.66
2023-05-09T16:14:26.559Z,45.23
2023-05-09T16:16:54.584Z,45.08
2023-05-09T16:19:22.708Z,45.26
2023-05-09T16:21:50.822Z,45.07
2023-05-09T16:24:19.019Z,45.12
2023-05-09T16:26:46.985Z,44.79
2023-05-09T16:29:14.985Z,44.78
2023-05-09T16:31:45.020Z,45.17
2023-05-09T16:34:13.369Z,45.45
2023-05-09T16:36:41.412Z,45.86
2023-05-09T16:39:09.849Z,46.21
2023-05-09T16:41:57.989Z,46.62
2023-05-09T16:44:26.613Z,46.94
2023-05-09T16:46:54.987Z,47.42
2023-05-09T16:49:23.393Z,47.53
2023-05-09T16:51:51.538Z,47.70
2023-05-09T16:54:19.968Z,48.01
2023-05-09T16:56:48.357Z,48.51
2023-05-09T16:59:17.657Z,48.53
2023-05-09T17:01:47.404Z,48.72
2023-05-09T17:04:15.683Z,48.92
2023-05-09T17:06:44.125Z,49.11
2023-05-09T17:09:13.281Z,49.27
2023-05-09T17:11:41.863Z,49.41
2023-05-09T17:14:10.346Z,49.97
2023-05-09T17:16:38.793Z,50.28
2023-05-09T17:19:06.819Z,50.52
2023-05-09T17:21:35.632Z,50.49
2023-05-09T17:24:04.453Z,50.68
2023-05-09T17:26:33.405Z,51.07
2023-05-09T17:29:03.824Z,51.08
2023-05-09T17:31:32.453Z,51.18
2023-05-09T17:34:01.563Z,51.07
2023-05-09T17:36:29.889Z,51.16
2023-05-09T17:38:58.582Z,51.31
2023-05-09T17:41:28.400Z,51.53
2023-05-09T17:43:57.547Z,51.65
2023-05-09T17:46:26.576Z,51.84
2023-05-09T17:48:55.185Z,52.11
2023-05-09T17:51:23.984Z,52.33
2023-05-09T17:53:52.936Z,52.53
2023-05-09T17:56:22.546Z,52.38
2023-05-09T17:58:54.097Z,52.43
2023-05-09T18:01:43.161Z,52.49
2023-05-09T18:04:13.690Z,52.65
2023-05-09T18:06:43.085Z,52.58
2023-05-09T18:09:12.454Z,52.86
2023-05-09T18:11:42.099Z,52.87
2023-05-09T18:14:11.352Z,53.03
2023-05-09T18:16:40.990Z,53.39
2023-05-09T18:19:09.751Z,53.52
2023-05-09T18:21:38.785Z,53.73
2023-05-09T18:24:09.283Z,53.92
2023-05-09T18:26:38.105Z,54.12
2023-05-09T18:29:06.810Z,54.22
2023-05-09T18:31:38.755Z,54.48
2023-05-09T18:34:07.912Z,54.67
2023-05-09T18:36:36.161Z,54.51
2023-05-09T18:39:04.654Z,54.51
2023-05-09T18:41:34.117Z,54.43
2023-05-09T18:44:02.473Z,54.25
2023-05-09T18:46:33.818Z,54.30
2023-05-09T18:49:04.275Z,54.47
2023-05-09T18:51:35.988Z,54.61
2023-05-09T18:54:04.388Z,54.52
2023-05-09T18:56:39.084Z,54.71
2023-05-09T18:59:09.470Z,54.71
2023-05-09T19:01:38.050Z,54.85
2023-05-09T19:04:07.140Z,54.93
2023-05-09T19:06:35.272Z,54.99
2023-05-09T19:09:04.414Z,55.13
2023-05-09T19:11:32.644Z,55.33
2023-05-09T19:14:00.733Z,55.45
2023-05-09T19:16:28.810Z,55.69
2023-05-09T19:18:58.244Z,55.82
2023-05-09T19:21:26.336Z,55.96
2023-05-09T19:23:54.268Z,55.98
2023-05-09T19:26:22.240Z,56.10
2023-05-09T19:28:50.293Z,56.08
2023-05-09T19:31:20.424Z,56.12
2023-05-09T19:33:50.671Z,56.20
2023-05-09T19:36:18.812Z,56.11
2023-05-09T19:39:06.762Z,56.12
2023-05-09T19:41:34.818Z,56.20
2023-05-09T19:44:02.764Z,56.33
2023-05-09T19:46:30.802Z,56.43
2023-05-09T19:48:58.854Z,56.33
2023-05-09T19:51:27.038Z,56.22
2023-05-09T19:53:55.376Z,56.08
2023-05-09T19:56:23.300Z,56.04
2023-05-09T19:58:51.304Z,55.96
2023-05-09T20:01:20.009Z,55.90
2023-05-09T20:03:50.381Z,55.89
2023-05-09T20:06:19.278Z,55.92
2023-05-09T20:08:47.665Z,55.94
2023-05-09T20:11:15.830Z,56.08
2023-05-09T20:14:04.738Z,56.13
2023-05-09T20:16:33.354Z,56.36
2023-05-09T20:19:01.627Z,56.68
2023-05-09T20:21:29.753Z,56.94
2023-05-09T20:23:57.812Z,57.17
2023-05-09T20:26:26.376Z,57.20
2023-05-09T20:28:59.122Z,57.38
2023-05-09T20:31:31.048Z,57.70
2023-05-09T20:33:59.317Z,57.88
2023-05-09T20:36:28.566Z,58.05
2023-05-09T20:38:57.595Z,58.19
2023-05-09T20:41:25.646Z,58.49
2023-05-09T20:43:53.712Z,58.84
2023-05-09T20:46:21.873Z,59.30
2023-05-09T20:48:52.404Z,59.66
2023-05-09T20:51:20.335Z,59.87
2023-05-09T20:53:48.404Z,60.15
2023-05-09T20:56:16.468Z,60.25
2023-05-09T20:58:44.405Z,60.37
2023-05-09T21:01:12.470Z,61.11
2023-05-09T21:03:41.099Z,61.21
2023-05-09T21:06:09.306Z,61.38
2023-05-09T21:08:37.506Z,61.63
2023-05-09T21:11:05.506Z,61.89
2023-05-09T21:13:33.559Z,62.13
2023-05-09T21:16:01.935Z,62.46
2023-05-09T21:18:29.981Z,62.45
2023-05-09T21:21:02.185Z,62.66
2023-05-09T21:23:30.322Z,62.46
2023-05-09T21:25:58.362Z,63.21
2023-05-09T21:28:27.211Z,63.22
2023-05-09T21:30:55.641Z,63.17
2023-05-09T21:33:23.667Z,63.29
2023-05-09T21:35:51.556Z,63.22
2023-05-09T21:38:19.515Z,63.55
2023-05-09T21:40:47.525Z,63.35
2023-05-09T21:43:15.551Z,63.33
2023-05-09T21:45:44.074Z,63.43
2023-05-09T21:48:12.098Z,63.60
2023-05-09T21:50:40.115Z,63.79
2023-05-09T21:53:08.067Z,63.81
2023-05-09T21:55:36.101Z,64.01
2023-05-09T21:58:04.246Z,64.11
2023-05-09T22:00:32.202Z,64.08
2023-05-09T22:03:00.343Z,63.85
2023-05-09T22:05:28.488Z,63.89
2023-05-09T22:07:56.512Z,64.24
2023-05-09T22:10:24.585Z,64.64
2023-05-09T22:12:53.368Z,65.01
2023-05-09T22:15:22.108Z,65.36
2023-05-09T22:17:50.393Z,65.72
2023-05-09T22:20:38.398Z,66.03
2023-05-09T22:23:06.573Z,65.94
2023-05-09T22:25:34.712Z,66.50
2023-05-09T22:28:02.749Z,67.18
2023-05-09T22:30:31.095Z,67.46
2023-05-09T22:33:00.217Z,67.64
2023-05-09T22:35:28.375Z,68.36
2023-05-09T22:37:56.755Z,68.46
2023-05-09T22:40:24.813Z,68.53
2023-05-09T22:42:53.640Z,68.42
2023-05-09T22:45:22.283Z,68.48
2023-05-09T22:47:50.484Z,68.63
2023-05-09T22:50:19.018Z,68.97
2023-05-09T22:52:47.429Z,68.76
2023-05-09T22:55:15.540Z,68.57
2023-05-09T22:57:43.576Z,68.38
2023-05-09T23:00:12.357Z,68.65
2023-05-09T23:02:40.564Z,68.93
2023-05-09T23:05:09.360Z,68.41
2023-05-09T23:07:37.529Z,68.18
2023-05-09T23:10:06.080Z,68.20
2023-05-09T23:12:34.107Z,68.24
2023-05-09T23:15:02.273Z,67.99
2023-05-09T23:17:30.417Z,67.99
2023-05-09T23:20:00.707Z,67.84
2023-05-09T23:22:28.784Z,67.88
2023-05-09T23:25:16.786Z,67.56
2023-05-09T23:28:04.649Z,67.47
2023-05-09T23:30:32.690Z,67.44
2023-05-09T23:33:20.648Z,67.30
2023-05-09T23:35:48.670Z,67.09
2023-05-09T23:38:17.262Z,67.17
2023-05-09T23:40:46.281Z,66.94
2023-05-09T23:43:14.270Z,66.73
2023-05-09T23:45:42.704Z,66.82
2023-05-09T23:48:11.359Z,66.71
2023-05-09T23:50:39.362Z,66.72
2023-05-09T23:53:07.496Z,66.66
2023-05-09T23:55:35.430Z,66.62
2023-05-09T23:58:03.480Z,66.75
